createdAt,value
2019-04-25T00:01:49.342Z,17.17
2019-04-25T00:04:18.621Z,16.56
2019-04-25T00:06:45.933Z,16.65
2019-04-25T00:09:16.125Z,16.48
2019-04-25T00:11:46.568Z,16.52
2019-04-25T00:14:14.028Z,17.16
2019-04-25T00:16:44.151Z,16.13
2019-04-25T00:19:12.082Z,16.64
2019-04-25T00:21:48.801Z,16.76
2019-04-25T00:24:32.068Z,17.09
2019-04-25T00:26:59.495Z,16.71
2019-04-25T00:29:26.857Z,16.67
2019-04-25T00:31:54.180Z,16.63
2019-04-25T00:34:21.864Z,16.41
2019-04-25T00:36:49.645Z,15.59
2019-04-25T00:39:16.988Z,16.33
2019-04-25T00:41:45.495Z,16.46
2019-04-25T00:44:13.510Z,16.31
2019-04-25T00:46:44.811Z,16.82
2019-04-25T00:49:10.077Z,15.77
2019-04-25T00:51:37.421Z,16.00
2019-04-25T00:54:04.739Z,15.91
2019-04-25T00:56:32.253Z,15.86
2019-04-25T00:59:34.046Z,16.83
2019-04-25T01:02:26.926Z,15.89
2019-04-25T01:04:54.378Z,16.16
2019-04-25T01:07:22.390Z,15.65
2019-04-25T01:09:50.132Z,15.79
2019-04-25T01:12:18.279Z,14.79
2019-04-25T01:14:46.472Z,15.58
2019-04-25T01:17:14.179Z,15.41
2019-04-25T01:19:41.538Z,14.31
2019-04-25T01:22:08.949Z,14.00
2019-04-25T01:24:36.304Z,14.38
2019-04-25T01:27:05.380Z,14.47
2019-04-25T01:29:33.473Z,14.00
2019-04-25T01:32:03.299Z,13.92
2019-04-25T01:34:50.867Z,13.83
2019-04-25T01:37:36.650Z,13.85
2019-04-25T01:40:23.528Z,13.82
2019-04-25T01:43:07.693Z,13.76
2019-04-25T01:45:35.062Z,13.95
2019-04-25T01:48:03.499Z,13.60
2019-04-25T01:50:30.949Z,13.13
2019-04-25T01:52:58.737Z,13.70
2019-04-25T01:55:26.098Z,13.52
2019-04-25T01:57:54.786Z,13.29
2019-04-25T02:00:33.260Z,13.15
2019-04-25T02:03:00.757Z,13.20
2019-04-25T02:05:28.077Z,13.03
2019-04-25T02:07:55.834Z,13.25
2019-04-25T02:10:23.770Z,13.61
2019-04-25T02:12:56.324Z,13.33
2019-04-25T02:15:27.169Z,12.64
2019-04-25T02:17:57.181Z,12.80
2019-04-25T02:20:23.911Z,12.25
2019-04-25T02:22:52.147Z,12.41
2019-04-25T02:25:19.677Z,12.08
2019-04-25T02:27:47.017Z,12.56
2019-04-25T02:30:15.729Z,12.19
2019-04-25T02:32:44.175Z,12.21
2019-04-25T02:35:12.080Z,12.57
2019-04-25T02:37:39.498Z,12.54
2019-04-25T02:40:08.523Z,12.25
2019-04-25T02:42:36.458Z,12.02
2019-04-25T02:45:16.650Z,11.72
2019-04-25T02:48:05.707Z,12.07
2019-04-25T02:50:48.995Z,11.81
2019-04-25T02:53:37.403Z,12.20
2019-04-25T02:56:19.009Z,11.71
2019-04-25T02:58:34.415Z,12.23
2019-04-25T03:01:14.308Z,12.61
2019-04-25T03:03:34.913Z,11.80
2019-04-25T03:06:03.714Z,12.37
2019-04-25T03:08:31.602Z,12.18
2019-04-25T03:10:59.839Z,11.92
2019-04-25T03:13:27.404Z,11.70
2019-04-25T03:15:55.728Z,11.86
2019-04-25T03:18:25.253Z,12.53
2019-04-25T03:21:13.361Z,11.52
2019-04-25T03:23:42.685Z,11.15
2019-04-25T03:26:09.818Z,10.98
2019-04-25T03:28:37.120Z,10.84
2019-04-25T03:31:09.276Z,11.29
2019-04-25T03:33:37.704Z,11.46
2019-04-25T03:36:03.548Z,11.39
2019-04-25T03:38:32.137Z,11.16
2019-04-25T03:41:00.178Z,11.43
2019-04-25T03:43:28.432Z,11.39
2019-04-25T03:45:55.900Z,11.75
2019-04-25T03:48:25.067Z,11.92
2019-04-25T03:50:53.965Z,10.97
2019-04-25T03:53:21.577Z,11.09
2019-04-25T03:55:48.911Z,11.66
2019-04-25T03:58:17.689Z,11.13
2019-04-25T04:00:45.065Z,11.03
2019-04-25T04:03:14.230Z,11.31
2019-04-25T04:05:41.648Z,11.99
2019-04-25T04:08:09.755Z,11.10
2019-04-25T04:10:37.186Z,11.19
2019-04-25T04:13:06.263Z,11.79
2019-04-25T04:15:33.969Z,11.72
2019-04-25T04:18:17.231Z,11.78
2019-04-25T04:21:05.388Z,11.32
2019-04-25T04:23:46.909Z,11.27
2019-04-25T04:26:14.570Z,11.38
2019-04-25T04:28:43.500Z,11.01
2019-04-25T04:31:10.976Z,12.29
2019-04-25T04:33:38.468Z,9.82
2019-04-25T04:36:07.311Z,11.08
2019-04-25T04:38:35.141Z,10.36
2019-04-25T04:41:03.946Z,10.40
2019-04-25T04:43:31.384Z,10.43
2019-04-25T04:45:58.723Z,10.66
2019-04-25T04:48:26.122Z,10.55
2019-04-25T04:50:53.509Z,11.05
2019-04-25T04:53:20.896Z,10.19
2019-04-25T04:55:48.224Z,10.81
2019-04-25T04:58:16.428Z,10.38
2019-04-25T05:00:44.838Z,10.38
2019-04-25T05:03:18.849Z,10.65
2019-04-25T05:06:01.317Z,11.05
2019-04-25T05:08:34.140Z,10.65
2019-04-25T05:11:01.525Z,10.70
2019-04-25T05:13:28.879Z,11.11
2019-04-25T05:15:56.326Z,11.21
2019-04-25T05:18:36.600Z,11.20
2019-04-25T05:20:54.262Z,11.10
2019-04-25T05:23:21.914Z,11.31
2019-04-25T05:25:49.257Z,11.03
2019-04-25T05:28:18.202Z,11.03
2019-04-25T05:30:51.548Z,11.52
2019-04-25T05:33:21.178Z,11.58
2019-04-25T05:35:48.216Z,11.53
2019-04-25T05:38:16.360Z,11.27
2019-04-25T05:40:55.961Z,12.23
2019-04-25T05:43:24.567Z,12.38
2019-04-25T05:45:54.124Z,12.38
2019-04-25T05:48:21.781Z,13.01
2019-04-25T05:50:49.148Z,13.27
2019-04-25T05:53:16.572Z,12.78
2019-04-25T05:55:44.199Z,12.72
2019-04-25T05:58:11.680Z,13.41
2019-04-25T06:00:39.700Z,13.93
2019-04-25T06:03:07.030Z,14.30
2019-04-25T06:05:34.380Z,14.03
2019-04-25T06:08:01.836Z,14.37
2019-04-25T06:10:38.730Z,15.27
2019-04-25T06:13:37.651Z,15.70
2019-04-25T06:16:10.056Z,16.29
2019-04-25T06:19:14.141Z,16.58
2019-04-25T06:21:38.751Z,16.19
2019-04-25T06:24:26.020Z,16.50
2019-04-25T06:27:16.395Z,15.66
2019-04-25T06:29:57.321Z,16.05
2019-04-25T06:32:14.944Z,15.94
2019-04-25T06:34:44.217Z,17.21
2019-04-25T06:37:11.817Z,16.96
2019-04-25T06:39:39.301Z,16.44
2019-04-25T06:42:06.671Z,16.82
2019-04-25T06:44:43.228Z,16.10
2019-04-25T06:47:34.092Z,16.15
2019-04-25T06:50:01.658Z,16.82
2019-04-25T06:52:31.140Z,16.17
2019-04-25T06:54:58.357Z,16.65
2019-04-25T06:57:26.973Z,16.91
2019-04-25T06:59:54.978Z,16.43
2019-04-25T07:02:25.110Z,16.24
2019-04-25T07:04:51.753Z,16.33
2019-04-25T07:07:19.171Z,16.39
2019-04-25T07:09:46.533Z,16.77
2019-04-25T07:12:14.043Z,16.48
2019-04-25T07:14:41.356Z,16.73
2019-04-25T07:17:08.736Z,17.61
2019-04-25T07:19:38.210Z,17.55
2019-04-25T07:22:05.608Z,17.99
2019-04-25T07:24:35.037Z,17.72
2019-04-25T07:27:30.877Z,17.84
2019-04-25T07:30:38.070Z,17.90
2019-04-25T07:33:01.579Z,17.19
2019-04-25T07:35:29.050Z,18.32
2019-04-25T07:37:56.389Z,18.54
2019-04-25T07:40:23.840Z,18.65
2019-04-25T07:42:51.240Z,17.94
2019-04-25T07:45:18.848Z,18.78
2019-04-25T07:47:46.251Z,18.77
2019-04-25T07:50:15.383Z,18.53
2019-04-25T07:52:44.326Z,17.64
2019-04-25T07:55:13.696Z,18.23
2019-04-25T07:57:42.185Z,18.96
2019-04-25T08:00:14.113Z,19.00
2019-04-25T08:02:43.222Z,19.19
2019-04-25T08:05:14.414Z,19.49
2019-04-25T08:07:43.592Z,19.66
2019-04-25T08:10:12.037Z,19.04
2019-04-25T08:12:40.660Z,18.69
2019-04-25T08:15:17.975Z,19.07
2019-04-25T08:17:56.046Z,19.72
2019-04-25T08:20:24.936Z,19.97
2019-04-25T08:22:58.339Z,20.01
2019-04-25T08:25:23.411Z,19.93
2019-04-25T08:27:50.959Z,20.00
2019-04-25T08:30:18.690Z,20.03
2019-04-25T08:32:46.161Z,20.18
2019-04-25T08:35:15.650Z,20.35
2019-04-25T08:37:44.120Z,20.33
2019-04-25T08:40:13.638Z,20.48
2019-04-25T08:42:41.913Z,20.43
2019-04-25T08:45:09.781Z,20.64
2019-04-25T08:47:37.388Z,20.66
2019-04-25T08:50:26.791Z,20.78
2019-04-25T08:52:47.239Z,20.55
2019-04-25T08:55:44.392Z,20.46
2019-04-25T08:58:35.454Z,20.53
2019-04-25T09:01:29.314Z,20.43
2019-04-25T09:04:13.306Z,20.27
2019-04-25T09:06:40.885Z,20.28
2019-04-25T09:09:08.337Z,20.30
2019-04-25T09:11:37.885Z,20.31
2019-04-25T09:14:05.015Z,20.14
2019-04-25T09:16:34.529Z,20.21
2019-04-25T09:19:03.040Z,20.31
2019-04-25T09:21:30.918Z,20.12
2019-04-25T09:23:58.345Z,20.10
2019-04-25T09:26:28.251Z,20.07
2019-04-25T09:28:55.584Z,19.98
2019-04-25T09:31:23.642Z,20.06
2019-04-25T09:33:54.216Z,20.24
2019-04-25T09:36:21.597Z,20.31
2019-04-25T09:38:51.891Z,20.37
2019-04-25T09:41:19.292Z,20.49
2019-04-25T09:43:48.664Z,20.75
2019-04-25T09:46:24.531Z,20.80
2019-04-25T09:48:58.543Z,20.66
2019-04-25T09:51:29.514Z,20.86
2019-04-25T09:54:15.199Z,20.81
2019-04-25T09:56:46.113Z,20.73
2019-04-25T09:59:26.732Z,20.68
2019-04-25T10:01:48.924Z,20.38
2019-04-25T10:04:16.441Z,20.47
2019-04-25T10:06:45.000Z,20.40
2019-04-25T10:09:13.593Z,20.45
2019-04-25T10:11:43.996Z,20.71
2019-04-25T10:14:35.118Z,20.95
2019-04-25T10:17:03.813Z,20.84
2019-04-25T10:19:31.546Z,20.86
2019-04-25T10:21:58.968Z,20.82
2019-04-25T10:24:26.326Z,20.98
2019-04-25T10:26:54.798Z,20.96
2019-04-25T10:29:22.516Z,21.20
2019-04-25T10:31:49.852Z,21.17
2019-04-25T10:34:17.372Z,21.28
2019-04-25T10:36:45.411Z,21.72
2019-04-25T10:39:14.472Z,21.58
2019-04-25T10:41:44.741Z,21.79
2019-04-25T10:44:11.706Z,21.36
2019-04-25T10:46:40.066Z,21.69
2019-04-25T10:49:07.767Z,21.68
2019-04-25T10:51:35.202Z,21.88
2019-04-25T10:54:04.115Z,21.90
2019-04-25T10:56:33.376Z,21.81
2019-04-25T10:59:01.021Z,21.80
2019-04-25T11:01:28.457Z,22.28
2019-04-25T11:04:02.116Z,22.31
2019-04-25T11:06:29.532Z,22.04
2019-04-25T11:08:56.867Z,22.27
2019-04-25T11:11:24.301Z,22.37
2019-04-25T11:13:54.011Z,22.29
2019-04-25T11:16:21.991Z,22.31
2019-04-25T11:18:49.658Z,21.98
2019-04-25T11:21:17.518Z,22.23
2019-04-25T11:23:47.580Z,22.07
2019-04-25T11:26:14.714Z,22.13
2019-04-25T11:28:45.138Z,22.11
2019-04-25T11:31:17.290Z,22.11
2019-04-25T11:33:44.700Z,22.19
2019-04-25T11:36:13.340Z,22.06
2019-04-25T11:38:57.584Z,22.19
2019-04-25T11:41:25.203Z,22.32
2019-04-25T11:43:54.397Z,22.52
2019-04-25T11:46:22.072Z,22.33
2019-04-25T11:48:50.427Z,22.45
2019-04-25T11:51:18.737Z,22.33
2019-04-25T11:53:47.212Z,22.41
2019-04-25T11:56:14.939Z,22.39
2019-04-25T11:58:45.059Z,22.23
2019-04-25T12:01:13.833Z,22.50
2019-04-25T12:03:41.668Z,22.85
2019-04-25T12:06:11.230Z,22.88
2019-04-25T12:08:38.770Z,22.73
2019-04-25T12:11:19.486Z,22.77
2019-04-25T12:13:48.058Z,22.76
2019-04-25T12:16:17.684Z,22.45
2019-04-25T12:18:48.120Z,22.61
2019-04-25T12:21:14.780Z,22.52
2019-04-25T12:23:42.151Z,22.47
2019-04-25T12:26:09.481Z,22.30
2019-04-25T12:28:36.881Z,22.62
2019-04-25T12:31:04.252Z,22.28
2019-04-25T12:33:34.811Z,22.63
2019-04-25T12:36:02.820Z,22.53
2019-04-25T12:38:30.817Z,22.27
2019-04-25T12:40:58.853Z,22.27
2019-04-25T12:43:28.992Z,22.24
2019-04-25T12:46:25.174Z,22.29
2019-04-25T12:48:52.542Z,22.52
2019-04-25T12:51:20.410Z,22.72
2019-04-25T12:53:47.997Z,22.99
2019-04-25T12:56:15.386Z,23.08
2019-04-25T12:58:43.499Z,23.54
2019-04-25T13:01:11.319Z,23.75
2019-04-25T13:03:38.726Z,23.61
2019-04-25T13:06:06.164Z,23.40
2019-04-25T13:08:34.092Z,24.13
2019-04-25T13:11:07.955Z,23.42
2019-04-25T13:13:30.777Z,23.40
2019-04-25T13:15:58.311Z,22.98
2019-04-25T13:18:25.704Z,22.74
2019-04-25T13:20:55.012Z,22.89
2019-04-25T13:23:24.172Z,23.14
2019-04-25T13:25:51.650Z,23.74
2019-04-25T13:28:38.569Z,23.68
2019-04-25T13:31:24.656Z,23.70
2019-04-25T13:34:01.703Z,23.58
2019-04-25T13:36:29.190Z,23.91
2019-04-25T13:38:57.183Z,24.01
2019-04-25T13:41:24.817Z,24.05
2019-04-25T13:43:53.063Z,24.71
2019-04-25T13:46:24.387Z,24.77
2019-04-25T13:48:50.635Z,24.51
2019-04-25T13:51:18.006Z,24.90
2019-04-25T13:53:45.434Z,24.60
2019-04-25T13:56:13.353Z,25.34
2019-04-25T13:58:40.868Z,24.26
2019-04-25T14:01:13.203Z,23.58
2019-04-25T14:03:39.617Z,22.99
2019-04-25T14:06:07.817Z,23.26
2019-04-25T14:08:35.377Z,23.22
2019-04-25T14:11:04.924Z,23.29
2019-04-25T14:13:32.529Z,22.93
2019-04-25T14:16:28.327Z,22.52
2019-04-25T14:19:07.908Z,22.31
2019-04-25T14:21:35.330Z,22.45
2019-04-25T14:24:02.746Z,22.57
2019-04-25T14:26:31.288Z,22.87
2019-04-25T14:28:58.680Z,23.24
2019-04-25T14:31:41.237Z,22.88
2019-04-25T14:33:55.466Z,23.21
2019-04-25T14:36:25.825Z,23.38
2019-04-25T14:38:52.180Z,23.28
2019-04-25T14:41:19.924Z,23.29
2019-04-25T14:43:47.308Z,23.68
2019-04-25T14:46:14.757Z,22.82
2019-04-25T14:48:42.167Z,23.76
2019-04-25T14:51:10.862Z,23.58
2019-04-25T14:53:38.456Z,23.30
2019-04-25T14:56:19.478Z,23.26
2019-04-25T14:58:46.836Z,23.53
2019-04-25T15:01:16.552Z,23.26
2019-04-25T15:03:43.941Z,23.33
2019-04-25T15:06:11.301Z,23.54
2019-04-25T15:08:38.981Z,23.26
2019-04-25T15:11:06.526Z,23.05
2019-04-25T15:13:33.942Z,23.50
2019-04-25T15:16:01.403Z,23.09
2019-04-25T15:18:28.858Z,22.79
2019-04-25T15:20:56.306Z,22.84
2019-04-25T15:23:24.167Z,23.06
2019-04-25T15:25:52.093Z,23.05
2019-04-25T15:28:19.485Z,22.94
2019-04-25T15:30:47.030Z,23.03
2019-04-25T15:33:14.416Z,22.75
2019-04-25T15:35:56.589Z,22.40
2019-04-25T15:38:31.394Z,22.18
2019-04-25T15:41:08.535Z,22.13
2019-04-25T15:44:04.629Z,22.01
2019-04-25T15:46:34.483Z,21.98
2019-04-25T15:49:01.908Z,21.91
2019-04-25T15:51:29.934Z,21.83
2019-04-25T15:53:57.427Z,21.73
2019-04-25T15:56:24.924Z,21.79
2019-04-25T15:58:52.343Z,21.31
2019-04-25T16:01:19.717Z,21.41
2019-04-25T16:03:47.188Z,21.44
2019-04-25T16:06:14.627Z,21.25
2019-04-25T16:08:42.219Z,21.36
2019-04-25T16:11:09.560Z,21.25
2019-04-25T16:13:37.539Z,21.00
2019-04-25T16:16:05.631Z,21.27
2019-04-25T16:18:33.176Z,21.11
2019-04-25T16:21:00.929Z,21.31
2019-04-25T16:23:29.022Z,21.47
2019-04-25T16:25:56.786Z,21.47
2019-04-25T16:28:24.213Z,21.31
2019-04-25T16:30:51.820Z,21.43
2019-04-25T16:33:19.242Z,21.47
2019-04-25T16:35:46.622Z,21.41
2019-04-25T16:38:14.631Z,21.20
2019-04-25T16:40:42.085Z,21.33
2019-04-25T16:43:12.330Z,21.34
2019-04-25T16:45:39.825Z,21.44
2019-04-25T16:48:07.182Z,21.25
2019-04-25T16:50:34.687Z,21.00
2019-04-25T16:53:02.150Z,20.91
2019-04-25T16:55:30.853Z,20.83
2019-04-25T16:57:59.207Z,20.69
2019-04-25T17:00:42.377Z,20.63
2019-04-25T17:03:10.269Z,20.48
2019-04-25T17:05:38.122Z,20.39
2019-04-25T17:08:06.645Z,20.46
2019-04-25T17:10:34.796Z,20.33
2019-04-25T17:13:02.391Z,20.34
2019-04-25T17:15:39.896Z,20.16
2019-04-25T17:18:20.039Z,20.10
2019-04-25T17:20:53.574Z,20.00
2019-04-25T17:23:21.365Z,20.06
2019-04-25T17:25:48.859Z,19.70
2019-04-25T17:28:16.220Z,19.99
2019-04-25T17:30:45.539Z,19.87
2019-04-25T17:33:21.052Z,19.88
2019-04-25T17:36:07.975Z,19.83
2019-04-25T17:38:47.837Z,19.89
2019-04-25T17:41:15.284Z,19.08
2019-04-25T17:43:42.701Z,19.34
2019-04-25T17:46:11.078Z,19.59
2019-04-25T17:48:38.493Z,19.52
2019-04-25T17:51:05.890Z,18.94
2019-04-25T17:53:34.403Z,19.61
2019-04-25T17:56:01.997Z,19.50
2019-04-25T17:58:29.329Z,19.16
2019-04-25T18:00:56.977Z,18.70
2019-04-25T18:03:24.804Z,18.88
2019-04-25T18:05:52.248Z,19.16
2019-04-25T18:08:23.651Z,19.11
2019-04-25T18:10:50.514Z,19.08
2019-04-25T18:13:18.020Z,19.42
2019-04-25T18:15:55.267Z,19.51
2019-04-25T18:18:41.331Z,18.63
2019-04-25T18:21:09.062Z,19.10
2019-04-25T18:23:54.751Z,18.78
2019-04-25T18:26:30.784Z,18.64
2019-04-25T18:29:02.135Z,18.55
2019-04-25T18:31:30.768Z,18.38
2019-04-25T18:34:02.127Z,18.29
2019-04-25T18:36:52.231Z,18.19
2019-04-25T18:39:42.009Z,18.36
2019-04-25T18:42:32.430Z,18.45
2019-04-25T18:45:02.944Z,18.08
2019-04-25T18:47:30.679Z,18.02
2019-04-25T18:49:58.171Z,17.82
2019-04-25T18:52:49.941Z,17.77
2019-04-25T18:55:27.192Z,17.86
2019-04-25T18:58:04.964Z,17.63
2019-04-25T19:00:43.704Z,17.57
2019-04-25T19:03:31.449Z,17.23
2019-04-25T19:06:04.504Z,17.63
2019-04-25T19:08:32.213Z,18.08
2019-04-25T19:11:08.181Z,17.79
2019-04-25T19:13:35.855Z,17.72
2019-04-25T19:16:04.897Z,18.01
2019-04-25T19:18:32.559Z,18.33
2019-04-25T19:21:00.660Z,19.02
2019-04-25T19:23:33.281Z,18.41
2019-04-25T19:26:01.058Z,17.64
2019-04-25T19:28:28.517Z,17.62
2019-04-25T19:30:56.525Z,17.75
2019-04-25T19:33:35.170Z,17.67
2019-04-25T19:35:53.909Z,17.76
2019-04-25T19:38:21.487Z,17.73
2019-04-25T19:41:01.964Z,16.91
2019-04-25T19:43:51.846Z,17.51
2019-04-25T19:46:21.264Z,18.50
2019-04-25T19:48:49.944Z,17.02
2019-04-25T19:51:17.656Z,17.82
2019-04-25T19:53:45.707Z,17.34
2019-04-25T19:56:21.614Z,17.33
2019-04-25T19:58:50.727Z,17.28
2019-04-25T20:01:19.380Z,17.62
2019-04-25T20:03:58.074Z,17.29
2019-04-25T20:06:33.173Z,17.62
2019-04-25T20:09:10.179Z,17.57
2019-04-25T20:11:42.733Z,18.69
2019-04-25T20:14:11.649Z,18.85
2019-04-25T20:16:46.068Z,19.22
2019-04-25T20:19:13.722Z,18.98
2019-04-25T20:21:41.205Z,19.03
2019-04-25T20:24:09.988Z,17.78
2019-04-25T20:26:37.377Z,18.45
2019-04-25T20:29:07.193Z,18.37
2019-04-25T20:31:35.251Z,18.78
2019-04-25T20:34:06.065Z,18.97
2019-04-25T20:36:32.014Z,18.92
2019-04-25T20:38:59.397Z,19.04
2019-04-25T20:41:26.857Z,18.84
2019-04-25T20:43:54.960Z,19.12
2019-04-25T20:46:22.512Z,19.19
2019-04-25T20:48:50.313Z,18.85
2019-04-25T20:51:17.778Z,18.35
2019-04-25T20:53:45.188Z,18.60
2019-04-25T20:56:12.646Z,18.70
2019-04-25T20:58:40.109Z,18.61
2019-04-25T21:01:07.470Z,19.13
2019-04-25T21:03:34.863Z,18.73
2019-04-25T21:06:07.992Z,17.95
2019-04-25T21:08:35.381Z,18.43
2019-04-25T21:11:02.782Z,18.91
2019-04-25T21:13:39.121Z,18.83
2019-04-25T21:16:25.989Z,18.96
2019-04-25T21:19:02.049Z,19.08
2019-04-25T21:21:29.443Z,19.47
2019-04-25T21:23:56.990Z,19.33
2019-04-25T21:26:24.379Z,18.78
2019-04-25T21:28:52.246Z,18.30
2019-04-25T21:31:19.872Z,18.89
2019-04-25T21:33:47.264Z,18.71
2019-04-25T21:36:15.142Z,18.84
2019-04-25T21:38:42.676Z,19.29
2019-04-25T21:41:28.193Z,18.92
2019-04-25T21:44:00.178Z,19.11
2019-04-25T21:46:27.840Z,18.90
2019-04-25T21:48:55.411Z,19.25
2019-04-25T21:51:32.195Z,19.11
2019-04-25T21:54:01.397Z,19.37
2019-04-25T21:56:29.160Z,18.90
2019-04-25T21:58:57.509Z,18.89
2019-04-25T22:01:28.597Z,19.31
2019-04-25T22:03:56.481Z,18.87
2019-04-25T22:06:24.181Z,19.18
2019-04-25T22:08:51.539Z,18.89
2019-04-25T22:11:18.881Z,18.89
2019-04-25T22:13:46.665Z,18.45
2019-04-25T22:16:14.462Z,18.74
2019-04-25T22:18:42.440Z,18.71
2019-04-25T22:21:10.357Z,18.19
2019-04-25T22:23:38.415Z,18.85
2019-04-25T22:26:07.045Z,18.41
2019-04-25T22:28:34.897Z,18.70
2019-04-25T22:31:07.578Z,18.68
2019-04-25T22:33:55.632Z,18.81
2019-04-25T22:36:23.913Z,18.73
2019-04-25T22:39:11.103Z,18.67
2019-04-25T22:41:40.825Z,18.96
2019-04-25T22:44:10.745Z,18.66
2019-04-25T22:46:38.641Z,18.58
2019-04-25T22:49:06.446Z,18.81
2019-04-25T22:51:34.301Z,18.60
2019-04-25T22:54:03.226Z,18.96
2019-04-25T22:56:30.841Z,18.94
2019-04-25T22:58:58.221Z,18.79
2019-04-25T23:01:45.536Z,18.89
2019-04-25T23:04:22.955Z,19.06
2019-04-25T23:06:50.437Z,19.21
2019-04-25T23:09:18.052Z,19.14
2019-04-25T23:11:45.949Z,19.10
2019-04-25T23:14:13.663Z,18.62
2019-04-25T23:16:40.987Z,18.67
2019-04-25T23:19:08.323Z,18.83
2019-04-25T23:21:36.684Z,19.19
2019-04-25T23:24:04.756Z,18.69
2019-04-25T23:26:41.632Z,18.94
2019-04-25T23:29:08.984Z,18.28
2019-04-25T23:31:37.529Z,17.90
2019-04-25T23:34:06.106Z,17.69
2019-04-25T23:36:34.362Z,17.75
2019-04-25T23:39:07.271Z,17.31
2019-04-25T23:41:34.981Z,17.44
2019-04-25T23:44:02.341Z,17.54
2019-04-25T23:46:30.004Z,17.05
2019-04-25T23:48:57.321Z,16.57
2019-04-25T23:51:24.661Z,16.89
2019-04-25T23:53:52.421Z,19.20
2019-04-25T23:56:19.766Z,18.39
2019-04-25T23:58:47.426Z,18.98
